Wilson, Louisiana
Current Conditions -  °F | °C
As of 12:55 PM on Tuesday 27 Jan 2015 (Local Time) from KHZR Reporting Station
Clear Clear  
Wind Chill: 71°   Ceiling: Unl
Heat Index: 71°   Visibility: 10mi
Dew Point: 40°   Wind: 0mph
Humidity: 33%   Direction: NA
Pressure: 30.1"   Gusts: NA
Location:  30.92°N, 91.12°W
Report Text: KHZR 271855Z AUTO 00000KT 10SM CLR 22/05 A3010 RMK AO2 T02150046
Loading
Personal Weather Stations






























Interactive Weather Map New forecast layout! Learn more

10-Day Weather Forecast

Advertisements
Track Severe Weather on mobile